createdAt,value
2018-09-26T00:01:21.353Z,10.46
2018-09-26T00:02:21.113Z,10.46
2018-09-26T00:04:17.264Z,10.39
2018-09-26T00:05:15.771Z,10.55
2018-09-26T00:07:09.972Z,10.51
2018-09-26T00:08:09.912Z,10.52
2018-09-26T00:10:05.129Z,10.47
2018-09-26T00:11:05.086Z,10.42
2018-09-26T00:12:59.093Z,10.43
2018-09-26T00:13:59.226Z,10.57
2018-09-26T00:15:54.449Z,10.52
2018-09-26T00:16:53.859Z,10.39
2018-09-26T00:18:48.159Z,10.42
2018-09-26T00:19:48.889Z,10.39
2018-09-26T00:21:42.914Z,10.44
2018-09-26T00:22:43.013Z,10.38
2018-09-26T00:24:37.307Z,10.42
2018-09-26T00:25:38.324Z,10.46
2018-09-26T00:27:31.802Z,10.54
2018-09-26T00:28:31.852Z,10.51
2018-09-26T00:30:25.637Z,10.57
2018-09-26T00:31:26.089Z,10.62
2018-09-26T00:33:20.440Z,10.57
2018-09-26T00:34:20.263Z,10.38
2018-09-26T00:36:14.470Z,10.43
2018-09-26T00:37:14.826Z,10.31
2018-09-26T00:39:09.135Z,10.43
2018-09-26T00:40:09.140Z,10.42
2018-09-26T00:41:09.561Z,10.29
2018-09-26T00:42:09.116Z,10.36
2018-09-26T00:43:09.441Z,10.43
2018-09-26T00:44:09.504Z,10.42
2018-09-26T00:45:09.526Z,10.38
2018-09-26T00:46:09.457Z,10.43
2018-09-26T00:47:09.659Z,10.51
2018-09-26T00:48:09.479Z,10.46
2018-09-26T00:49:09.697Z,10.49
2018-09-26T00:50:09.644Z,10.54
2018-09-26T00:51:09.508Z,10.46
2018-09-26T00:52:09.651Z,10.38
2018-09-26T00:53:09.480Z,10.42
2018-09-26T00:54:09.434Z,10.32
2018-09-26T00:55:09.489Z,10.36
2018-09-26T00:56:09.650Z,10.28
2018-09-26T00:57:09.644Z,10.42
2018-09-26T00:58:09.665Z,10.29
2018-09-26T00:59:09.683Z,10.38
2018-09-26T01:00:09.682Z,10.36
2018-09-26T01:01:09.691Z,10.51
2018-09-26T01:02:09.660Z,10.51
2018-09-26T01:03:09.690Z,10.25
2018-09-26T01:04:09.690Z,10.42
2018-09-26T01:05:09.666Z,10.20
2018-09-26T01:06:09.683Z,10.31
2018-09-26T01:07:09.421Z,10.06
2018-09-26T01:08:09.686Z,10.17
2018-09-26T01:09:09.648Z,10.01
2018-09-26T01:10:09.667Z,10.11
2018-09-26T01:11:09.691Z,10.20
2018-09-26T01:12:09.705Z,10.13
2018-09-26T01:13:09.637Z,10.16
2018-09-26T01:14:09.542Z,10.02
2018-09-26T01:15:09.646Z,9.99
2018-09-26T01:16:09.540Z,9.96
2018-09-26T01:17:09.499Z,9.86
2018-09-26T01:19:32.610Z,9.89
2018-09-26T01:20:32.872Z,9.92
2018-09-26T01:22:27.347Z,9.95
2018-09-26T01:23:27.587Z,9.93
2018-09-26T01:25:22.500Z,9.95
2018-09-26T01:26:21.781Z,9.98
2018-09-26T01:28:16.484Z,9.92
2018-09-26T01:29:16.888Z,9.93
2018-09-26T01:31:11.449Z,9.85
2018-09-26T01:32:11.552Z,9.91
2018-09-26T01:34:05.845Z,10.02
2018-09-26T01:35:06.682Z,9.99
2018-09-26T01:37:00.236Z,9.96
2018-09-26T01:38:00.978Z,9.99
2018-09-26T01:39:54.946Z,9.88
2018-09-26T01:40:55.432Z,9.86
2018-09-26T01:42:49.806Z,9.80
2018-09-26T01:43:49.785Z,9.67
2018-09-26T01:45:44.090Z,9.78
2018-09-26T01:46:44.497Z,9.75
2018-09-26T01:47:45.034Z,9.73
2018-09-26T01:48:44.496Z,9.93
2018-09-26T01:49:45.031Z,9.63
2018-09-26T01:50:44.051Z,9.77
2018-09-26T01:51:44.493Z,9.77
2018-09-26T01:52:45.023Z,9.83
2018-09-26T01:53:44.497Z,9.80
2018-09-26T01:54:44.828Z,9.92
2018-09-26T01:55:44.570Z,9.80
2018-09-26T01:56:44.876Z,9.78
2018-09-26T01:57:44.828Z,9.88
2018-09-26T01:58:44.323Z,9.81
2018-09-26T01:59:44.865Z,9.80
2018-09-26T02:00:43.954Z,9.89
2018-09-26T02:01:44.831Z,9.88
2018-09-26T02:02:45.093Z,9.78
2018-09-26T02:03:44.534Z,9.88
2018-09-26T02:04:44.737Z,9.93
2018-09-26T02:05:43.926Z,9.83
2018-09-26T02:06:44.530Z,9.88
2018-09-26T02:07:45.034Z,9.96
2018-09-26T02:08:44.495Z,9.83
2018-09-26T02:09:44.997Z,9.77
2018-09-26T02:10:43.998Z,9.77
2018-09-26T02:11:44.532Z,9.75
2018-09-26T02:12:45.014Z,9.80
2018-09-26T02:13:44.494Z,9.77
2018-09-26T02:14:44.989Z,9.77
2018-09-26T02:15:44.009Z,9.75
2018-09-26T02:16:44.781Z,9.68
2018-09-26T02:17:45.018Z,9.71
2018-09-26T02:18:44.587Z,9.60
2018-09-26T02:19:44.998Z,9.62
2018-09-26T02:20:43.824Z,9.74
2018-09-26T02:21:44.998Z,9.73
2018-09-26T02:22:44.826Z,9.68
2018-09-26T02:23:44.628Z,9.65
2018-09-26T02:24:44.804Z,9.73
2018-09-26T02:25:43.994Z,9.60
2018-09-26T02:26:44.490Z,9.63
2018-09-26T02:27:44.299Z,9.60
2018-09-26T02:28:45.857Z,9.63
2018-09-26T02:29:44.492Z,9.60
2018-09-26T02:30:43.729Z,9.55
2018-09-26T02:31:44.153Z,9.63
2018-09-26T02:32:44.034Z,9.67
2018-09-26T02:33:44.507Z,9.62
2018-09-26T02:34:44.590Z,9.58
2018-09-26T02:35:43.743Z,9.52
2018-09-26T02:36:44.614Z,9.56
2018-09-26T02:37:44.484Z,9.48
2018-09-26T02:38:44.125Z,9.48
2018-09-26T02:39:44.282Z,9.52
2018-09-26T02:40:44.231Z,9.41
2018-09-26T02:41:44.620Z,9.49
2018-09-26T02:42:44.632Z,9.56
2018-09-26T02:43:46.366Z,9.41
2018-09-26T02:44:46.505Z,9.49
2018-09-26T02:45:44.589Z,9.44
2018-09-26T02:46:44.558Z,9.49
2018-09-26T02:47:44.652Z,9.49
2018-09-26T02:48:46.845Z,9.42
2018-09-26T02:49:46.404Z,9.42
2018-09-26T02:50:45.002Z,9.34
2018-09-26T02:51:44.418Z,9.38
2018-09-26T02:52:44.506Z,9.41
2018-09-26T02:53:44.527Z,9.38
2018-09-26T02:54:44.097Z,9.35
2018-09-26T02:55:44.888Z,9.40
2018-09-26T02:56:44.299Z,9.35
2018-09-26T02:57:44.305Z,9.42
2018-09-26T02:58:43.998Z,9.41
2018-09-26T02:59:44.258Z,9.42
2018-09-26T03:00:44.358Z,9.34
2018-09-26T03:01:44.297Z,9.40
2018-09-26T03:02:44.596Z,9.38
2018-09-26T03:03:45.003Z,9.37
2018-09-26T03:04:44.280Z,9.41
2018-09-26T03:05:44.842Z,9.37
2018-09-26T03:06:44.013Z,9.45
2018-09-26T03:07:44.096Z,9.41
2018-09-26T03:08:44.036Z,9.35
2018-09-26T03:09:44.398Z,9.41
2018-09-26T03:10:44.421Z,9.40
2018-09-26T03:11:44.505Z,9.31
2018-09-26T03:12:44.391Z,9.26
2018-09-26T03:13:44.471Z,9.37
2018-09-26T03:14:44.860Z,9.31
2018-09-26T03:15:43.979Z,9.31
2018-09-26T03:16:44.352Z,9.26
2018-09-26T03:17:44.136Z,9.32
2018-09-26T03:18:44.280Z,9.35
2018-09-26T03:19:44.524Z,9.27
2018-09-26T03:20:44.466Z,9.41
2018-09-26T03:21:45.043Z,9.37
2018-09-26T03:22:44.294Z,9.27
2018-09-26T03:23:45.511Z,9.23
2018-09-26T03:24:44.889Z,9.17
2018-09-26T03:25:44.260Z,9.37
2018-09-26T03:26:44.344Z,9.30
2018-09-26T03:27:44.338Z,9.27
2018-09-26T03:28:45.042Z,9.38
2018-09-26T03:29:44.052Z,9.41
2018-09-26T03:30:43.850Z,9.44
2018-09-26T03:31:44.281Z,9.37
2018-09-26T03:32:44.636Z,9.31
2018-09-26T03:33:44.486Z,9.38
2018-09-26T03:34:45.571Z,9.38
2018-09-26T03:35:43.817Z,9.44
2018-09-26T03:36:44.407Z,9.31
2018-09-26T03:37:44.321Z,9.24
2018-09-26T03:38:44.386Z,9.27
2018-09-26T03:39:44.991Z,9.35
2018-09-26T03:40:44.503Z,9.35
2018-09-26T03:41:44.323Z,9.27
2018-09-26T03:42:44.502Z,9.32
2018-09-26T03:43:44.508Z,9.32
2018-09-26T03:44:44.555Z,9.30
2018-09-26T03:45:44.944Z,9.30
2018-09-26T03:46:45.017Z,9.32
2018-09-26T03:47:44.508Z,9.30
2018-09-26T03:48:44.506Z,9.19
2018-09-26T03:49:44.501Z,9.13
2018-09-26T03:50:44.510Z,9.17
2018-09-26T03:51:44.509Z,9.15
2018-09-26T03:52:44.406Z,9.17
2018-09-26T03:53:44.004Z,9.19
2018-09-26T03:54:44.027Z,9.08
2018-09-26T03:55:45.003Z,9.22
2018-09-26T03:56:44.026Z,9.20
2018-09-26T03:57:44.023Z,9.13
2018-09-26T03:58:43.827Z,9.12
2018-09-26T03:59:44.028Z,9.12
2018-09-26T04:00:44.031Z,9.22
2018-09-26T04:01:43.589Z,9.23
2018-09-26T04:02:43.928Z,9.19
2018-09-26T04:03:44.013Z,9.16
2018-09-26T04:04:43.874Z,9.10
2018-09-26T04:05:45.680Z,9.01
2018-09-26T04:06:44.058Z,9.04
2018-09-26T04:07:44.023Z,9.01
2018-09-26T04:08:44.510Z,9.13
2018-09-26T04:09:44.100Z,9.12
2018-09-26T04:10:46.016Z,9.13
2018-09-26T04:11:44.060Z,9.23
2018-09-26T04:12:44.159Z,9.17
2018-09-26T04:13:44.567Z,9.20
2018-09-26T04:14:44.332Z,9.17
2018-09-26T04:15:43.761Z,9.13
2018-09-26T04:16:43.997Z,9.08
2018-09-26T04:17:44.027Z,9.10
2018-09-26T04:18:43.818Z,9.13
2018-09-26T04:19:43.961Z,9.08
2018-09-26T04:20:44.090Z,9.13
2018-09-26T04:21:44.013Z,9.06
2018-09-26T04:22:44.012Z,9.08
2018-09-26T04:23:44.011Z,9.15
2018-09-26T04:24:44.015Z,9.04
2018-09-26T04:25:44.028Z,9.06
2018-09-26T04:26:43.720Z,9.00
2018-09-26T04:27:44.181Z,8.86
2018-09-26T04:28:44.063Z,8.86
2018-09-26T04:29:43.428Z,9.04
2018-09-26T04:30:44.085Z,8.91
2018-09-26T04:31:43.508Z,8.82
2018-09-26T04:32:45.712Z,8.94
2018-09-26T04:33:43.563Z,8.88
2018-09-26T04:34:43.786Z,8.94
2018-09-26T04:35:43.816Z,8.88
2018-09-26T04:36:43.819Z,9.01
2018-09-26T04:37:44.050Z,8.93
2018-09-26T04:38:44.496Z,8.98
2018-09-26T04:39:44.081Z,8.94
2018-09-26T04:40:44.056Z,8.86
2018-09-26T04:41:44.075Z,8.85
2018-09-26T04:42:43.842Z,8.96
2018-09-26T04:43:44.010Z,9.06
2018-09-26T04:44:44.067Z,8.91
2018-09-26T04:45:44.026Z,8.98
2018-09-26T04:46:44.018Z,8.91
2018-09-26T04:47:43.835Z,8.93
2018-09-26T04:48:43.835Z,8.93
2018-09-26T04:49:44.014Z,9.00
2018-09-26T04:50:44.107Z,8.97
2018-09-26T04:51:44.081Z,8.86
2018-09-26T04:52:44.513Z,9.03
2018-09-26T04:53:44.012Z,8.88
2018-09-26T04:54:44.058Z,8.91
2018-09-26T04:55:44.367Z,8.94
2018-09-26T04:56:43.523Z,8.94
2018-09-26T04:57:44.118Z,8.97
2018-09-26T04:58:44.098Z,9.01
2018-09-26T04:59:44.025Z,8.97
2018-09-26T05:00:44.394Z,8.88
2018-09-26T05:01:45.595Z,8.97
2018-09-26T05:02:44.510Z,9.06
2018-09-26T05:03:43.809Z,8.89
2018-09-26T05:04:46.014Z,9.08
2018-09-26T05:05:44.065Z,9.03
2018-09-26T05:06:43.827Z,9.10
2018-09-26T05:07:44.081Z,9.04
2018-09-26T05:08:44.063Z,9.04
2018-09-26T05:10:10.795Z,8.88
2018-09-26T05:10:44.060Z,9.04
2018-09-26T05:13:16.761Z,9.15
2018-09-26T05:14:16.717Z,9.06
2018-09-26T05:16:10.873Z,8.93
2018-09-26T05:17:11.923Z,8.93
2018-09-26T05:19:05.659Z,8.93
2018-09-26T05:20:05.992Z,9.03
2018-09-26T05:22:00.225Z,9.04
2018-09-26T05:23:00.594Z,9.12
2018-09-26T05:24:54.867Z,9.08
2018-09-26T05:25:54.421Z,9.08
2018-09-26T05:27:48.792Z,9.22
2018-09-26T05:28:49.308Z,9.08
2018-09-26T05:30:43.160Z,9.24
2018-09-26T05:31:43.733Z,9.19
2018-09-26T05:33:36.825Z,9.22
2018-09-26T05:34:37.274Z,9.20
2018-09-26T05:36:33.861Z,9.30
2018-09-26T05:37:31.752Z,9.30
2018-09-26T05:39:26.520Z,9.35
2018-09-26T05:40:27.430Z,9.41
2018-09-26T05:41:27.125Z,9.40
2018-09-26T05:42:27.168Z,9.23
2018-09-26T05:43:27.133Z,9.35
2018-09-26T05:44:27.323Z,9.41
2018-09-26T05:45:27.162Z,9.35
2018-09-26T05:46:27.446Z,9.35
2018-09-26T05:47:27.272Z,9.42
2018-09-26T05:48:26.845Z,9.41
2018-09-26T05:49:29.132Z,9.40
2018-09-26T05:50:27.187Z,9.42
2018-09-26T05:51:27.299Z,9.41
2018-09-26T05:52:26.860Z,9.38
2018-09-26T05:53:26.684Z,9.38
2018-09-26T05:54:27.009Z,9.41
2018-09-26T05:55:27.189Z,9.42
2018-09-26T05:56:26.950Z,9.52
2018-09-26T05:57:26.885Z,9.49
2018-09-26T05:58:28.072Z,9.42
2018-09-26T05:59:26.889Z,9.41
2018-09-26T06:00:26.653Z,9.49
2018-09-26T06:01:26.310Z,9.50
2018-09-26T06:02:27.170Z,9.50
2018-09-26T06:03:27.204Z,9.50
2018-09-26T06:04:26.638Z,9.49
2018-09-26T06:05:27.602Z,9.44
2018-09-26T06:06:27.413Z,9.48
2018-09-26T06:07:26.952Z,9.55
2018-09-26T06:08:27.149Z,9.50
2018-09-26T06:09:27.162Z,9.50
2018-09-26T06:10:27.564Z,9.50
2018-09-26T06:11:26.595Z,9.48
2018-09-26T06:12:26.919Z,9.53
2018-09-26T06:13:27.154Z,9.53
2018-09-26T06:14:26.936Z,9.52
2018-09-26T06:15:29.879Z,9.53
2018-09-26T06:16:27.588Z,9.53
2018-09-26T06:17:29.598Z,9.52
2018-09-26T06:19:26.696Z,9.53
2018-09-26T06:20:26.589Z,9.50
2018-09-26T06:21:28.927Z,9.59
2018-09-26T06:22:26.652Z,9.49
2018-09-26T06:23:27.739Z,9.55
2018-09-26T06:24:26.633Z,9.50
2018-09-26T06:25:26.989Z,9.50
2018-09-26T06:26:29.001Z,9.50
2018-09-26T06:27:26.594Z,9.49
2018-09-26T06:28:26.788Z,9.67
2018-09-26T06:29:26.651Z,9.63
2018-09-26T06:30:26.594Z,9.68
2018-09-26T06:31:26.566Z,9.70
2018-09-26T06:32:27.145Z,9.71
2018-09-26T06:33:26.689Z,9.60
2018-09-26T06:34:27.152Z,9.70
2018-09-26T06:35:26.590Z,9.73
2018-09-26T06:36:26.966Z,9.63
2018-09-26T06:37:32.670Z,9.68
2018-09-26T06:38:26.670Z,9.80
2018-09-26T06:39:26.818Z,9.74
2018-09-26T06:40:26.293Z,9.89
2018-09-26T06:41:40.831Z,9.92
2018-09-26T06:42:26.600Z,9.88
2018-09-26T06:43:28.756Z,9.91
2018-09-26T06:44:26.665Z,9.93
2018-09-26T06:45:29.173Z,9.98
2018-09-26T06:46:26.591Z,9.86
2018-09-26T06:47:26.612Z,9.89
2018-09-26T06:48:27.354Z,9.86
2018-09-26T06:49:27.142Z,9.93
2018-09-26T06:50:26.355Z,9.99
2018-09-26T06:51:26.594Z,9.99
2018-09-26T06:52:26.466Z,10.09
2018-09-26T06:53:26.952Z,10.13
2018-09-26T06:54:26.594Z,10.07
2018-09-26T06:55:26.700Z,9.96
2018-09-26T06:56:26.626Z,10.10
2018-09-26T06:57:26.667Z,10.07
2018-09-26T06:58:28.952Z,10.14
2018-09-26T07:00:02.096Z,10.16
2018-09-26T07:00:26.692Z,10.28
2018-09-26T07:01:26.632Z,10.26
2018-09-26T07:02:26.481Z,10.43
2018-09-26T07:03:26.021Z,10.42
2018-09-26T07:04:26.572Z,10.46
2018-09-26T07:05:26.665Z,10.43
2018-09-26T07:07:26.962Z,10.43
2018-09-26T07:08:26.955Z,10.52
2018-09-26T07:09:26.775Z,10.49
2018-09-26T07:10:26.610Z,10.49
2018-09-26T07:11:27.429Z,10.47
2018-09-26T07:12:26.600Z,10.51
2018-09-26T07:14:01.646Z,10.49
2018-09-26T07:14:26.621Z,10.46
2018-09-26T07:15:27.189Z,10.46
2018-09-26T07:16:26.504Z,10.54
2018-09-26T07:17:26.056Z,10.49
2018-09-26T07:18:28.982Z,10.52
2018-09-26T07:19:26.923Z,10.52
2018-09-26T07:20:26.107Z,10.58
2018-09-26T07:21:53.863Z,10.62
2018-09-26T07:22:26.345Z,10.62
2018-09-26T07:23:26.121Z,10.63
2018-09-26T07:24:46.584Z,10.57
2018-09-26T07:25:27.148Z,10.62
2018-09-26T07:26:46.779Z,10.69
2018-09-26T07:29:13.610Z,10.66
2018-09-26T07:31:28.602Z,10.57
2018-09-26T07:33:27.241Z,10.70
2018-09-26T07:35:42.870Z,10.93
2018-09-26T07:37:56.935Z,10.75
2018-09-26T07:38:57.626Z,10.80
2018-09-26T07:41:14.317Z,10.87
2018-09-26T07:42:46.218Z,10.87
2018-09-26T07:43:46.456Z,10.81
2018-09-26T07:45:46.633Z,10.73
2018-09-26T07:47:58.017Z,10.90
2018-09-26T07:48:56.068Z,11.02
2018-09-26T07:50:57.977Z,10.99
2018-09-26T07:53:26.621Z,11.17
2018-09-26T07:55:27.736Z,11.03
2018-09-26T07:56:20.733Z,11.05
2018-09-26T07:58:16.353Z,11.16
2018-09-26T07:59:15.552Z,11.16
2018-09-26T08:01:11.817Z,11.13
2018-09-26T08:02:09.945Z,11.17
2018-09-26T08:04:24.245Z,11.23
2018-09-26T08:05:03.229Z,11.21
2018-09-26T08:06:58.165Z,11.33
2018-09-26T08:07:57.825Z,11.42
2018-09-26T08:10:06.028Z,11.41
2018-09-26T08:10:53.054Z,11.41
2018-09-26T08:11:55.219Z,11.49
2018-09-26T08:12:53.036Z,11.48
2018-09-26T08:13:52.815Z,11.51
2018-09-26T08:14:53.722Z,11.53
2018-09-26T08:16:01.378Z,11.56
2018-09-26T08:16:56.813Z,11.51
2018-09-26T08:17:53.574Z,11.62
2018-09-26T08:18:55.139Z,11.70
2018-09-26T08:19:53.343Z,11.72
2018-09-26T08:20:53.461Z,11.72
2018-09-26T08:21:52.834Z,11.93
2018-09-26T08:22:55.273Z,11.90
2018-09-26T08:23:53.299Z,11.93
2018-09-26T08:24:53.478Z,11.94
2018-09-26T08:25:53.351Z,11.94
2018-09-26T08:26:52.867Z,11.96
2018-09-26T08:27:53.015Z,11.93
2018-09-26T08:28:53.355Z,12.11
2018-09-26T08:29:53.052Z,12.19
2018-09-26T08:30:54.775Z,12.19
2018-09-26T08:31:53.506Z,12.19
2018-09-26T08:32:53.065Z,12.05
2018-09-26T08:33:53.789Z,12.12
2018-09-26T08:34:52.824Z,12.23
2018-09-26T08:35:52.731Z,12.25
2018-09-26T08:36:53.056Z,12.23
2018-09-26T08:37:52.763Z,12.30
2018-09-26T08:38:52.981Z,12.21
2018-09-26T08:39:52.828Z,12.22
2018-09-26T08:41:17.339Z,12.30
2018-09-26T08:41:59.068Z,12.44
2018-09-26T08:42:52.612Z,12.41
2018-09-26T08:43:52.608Z,12.41
2018-09-26T08:46:25.824Z,12.58
2018-09-26T08:47:25.531Z,12.66
2018-09-26T08:50:53.790Z,12.58
2018-09-26T08:53:08.453Z,12.69
2018-09-26T08:57:10.984Z,12.85
2018-09-26T08:57:56.859Z,12.81
2018-09-26T08:59:50.689Z,13.06
2018-09-26T09:02:13.701Z,13.17
2018-09-26T09:04:35.052Z,13.16
2018-09-26T09:05:20.338Z,13.24
2018-09-26T09:07:14.763Z,13.27
2018-09-26T09:08:14.056Z,13.43
2018-09-26T09:10:08.718Z,13.48
2018-09-26T09:11:09.268Z,13.57
2018-09-26T09:13:25.055Z,13.43
2018-09-26T09:15:19.690Z,13.65
2018-09-26T09:16:19.718Z,13.68
2018-09-26T09:18:13.337Z,13.73
2018-09-26T09:19:28.334Z,13.80
2018-09-26T09:20:14.279Z,13.73
2018-09-26T09:21:13.826Z,13.88
2018-09-26T09:22:37.392Z,13.87
2018-09-26T09:23:13.638Z,14.04
2018-09-26T09:24:15.506Z,14.08
2018-09-26T09:26:59.382Z,14.13
2018-09-26T09:27:48.756Z,13.98
2018-09-26T09:28:48.753Z,13.87
2018-09-26T09:29:49.279Z,13.93
2018-09-26T09:31:10.246Z,13.90
2018-09-26T09:31:49.301Z,13.96
2018-09-26T09:33:11.316Z,13.98
2018-09-26T09:34:17.015Z,13.96
2018-09-26T09:34:48.777Z,14.12
2018-09-26T09:37:31.739Z,14.38
2018-09-26T09:38:44.269Z,14.38
2018-09-26T09:39:29.511Z,14.52
2018-09-26T09:40:50.056Z,14.38
2018-09-26T09:41:37.508Z,14.27
2018-09-26T09:42:21.104Z,14.27
2018-09-26T09:43:47.639Z,14.52
2018-09-26T09:44:24.595Z,14.57
2018-09-26T09:45:23.438Z,14.44
2018-09-26T09:46:22.713Z,14.45
2018-09-26T09:47:43.252Z,14.26
2018-09-26T09:48:40.174Z,14.45
2018-09-26T09:49:25.176Z,14.59
2018-09-26T09:50:30.180Z,14.57
2018-09-26T09:51:46.018Z,14.52
2018-09-26T09:52:29.685Z,14.42
2018-09-26T09:55:01.573Z,14.46
2018-09-26T10:00:18.358Z,14.71
2018-09-26T10:01:20.192Z,14.79
2018-09-26T10:03:13.592Z,14.90
2018-09-26T10:05:27.831Z,15.23
2018-09-26T10:07:45.849Z,15.03
2018-09-26T10:12:01.570Z,15.15
2018-09-26T10:13:03.126Z,14.97
2018-09-26T10:14:02.097Z,14.95
2018-09-26T10:15:01.525Z,15.09
2018-09-26T10:16:15.603Z,15.33
2018-09-26T10:16:54.823Z,15.37
2018-09-26T10:18:30.641Z,15.34
2018-09-26T10:18:57.175Z,15.34
2018-09-26T10:19:54.983Z,15.43
2018-09-26T10:20:55.539Z,15.30
2018-09-26T10:21:54.501Z,15.41
2018-09-26T10:23:25.620Z,15.28
2018-09-26T10:23:57.610Z,15.25
2018-09-26T10:25:02.170Z,15.49
2018-09-26T10:25:55.143Z,15.80
2018-09-26T10:26:57.065Z,15.81
2018-09-26T10:27:55.098Z,15.76
2018-09-26T10:29:55.394Z,15.77
2018-09-26T10:33:04.063Z,15.99
2018-09-26T10:33:31.067Z,16.08
2018-09-26T10:34:49.651Z,16.47
2018-09-26T10:35:35.489Z,16.30
2018-09-26T10:36:52.163Z,16.40
2018-09-26T10:37:30.981Z,16.62
2018-09-26T10:38:33.038Z,16.60
2018-09-26T10:39:33.227Z,16.65
2018-09-26T10:40:31.065Z,16.59
2018-09-26T10:41:29.401Z,16.78
2018-09-26T10:42:29.524Z,16.95
2018-09-26T10:44:30.305Z,16.99
2018-09-26T10:45:30.798Z,17.09
2018-09-26T10:46:30.073Z,17.12
2018-09-26T10:47:50.403Z,16.88
2018-09-26T10:48:37.368Z,16.81
2018-09-26T10:49:31.938Z,17.00
2018-09-26T10:50:51.539Z,17.18
2018-09-26T10:51:32.503Z,17.22
2018-09-26T10:52:30.564Z,17.40
2018-09-26T10:53:31.011Z,17.81
2018-09-26T10:54:32.497Z,17.83
2018-09-26T10:55:32.575Z,17.87
2018-09-26T10:56:32.629Z,17.89
2018-09-26T10:57:32.548Z,17.77
2018-09-26T10:58:28.825Z,17.76
2018-09-26T10:59:29.259Z,18.07
2018-09-26T11:00:34.313Z,18.20
2018-09-26T11:01:29.822Z,18.41
2018-09-26T11:02:28.880Z,17.92
2018-09-26T11:03:28.795Z,18.47
2018-09-26T11:04:31.043Z,18.78
2018-09-26T11:06:41.632Z,18.90
2018-09-26T11:07:29.053Z,18.57
2018-09-26T11:09:29.329Z,19.61
2018-09-26T11:10:48.935Z,19.72
2018-09-26T11:11:35.565Z,19.67
2018-09-26T11:12:31.335Z,19.43
2018-09-26T11:13:30.052Z,20.08
2018-09-26T11:14:28.358Z,19.79
2018-09-26T11:15:28.500Z,19.70
2018-09-26T11:17:29.649Z,20.19
2018-09-26T11:20:37.756Z,20.97
2018-09-26T11:24:56.238Z,21.81
2018-09-26T11:25:54.024Z,22.08
2018-09-26T11:27:01.204Z,22.94
2018-09-26T11:27:55.708Z,23.06
2018-09-26T11:28:56.413Z,22.76
2018-09-26T11:31:28.441Z,23.87
2018-09-26T11:32:28.400Z,23.92
2018-09-26T11:34:56.167Z,23.41
2018-09-26T11:43:30.994Z,26.13
2018-09-26T11:44:34.484Z,25.86
2018-09-26T11:46:57.905Z,25.97
2018-09-26T11:47:58.211Z,26.11
2018-09-26T11:50:02.875Z,27.42
2018-09-26T11:50:55.991Z,27.90
2018-09-26T11:52:16.185Z,27.45
2018-09-26T11:54:47.075Z,27.90
2018-09-26T11:55:28.663Z,27.61
2018-09-26T11:56:27.727Z,28.80
2018-09-26T11:57:29.916Z,27.78
2018-09-26T11:58:28.740Z,26.90
2018-09-26T12:00:05.341Z,25.59
2018-09-26T12:02:20.548Z,25.63
2018-09-26T12:03:15.907Z,25.38
2018-09-26T12:04:02.129Z,26.16
2018-09-26T12:05:04.062Z,25.34
2018-09-26T12:06:04.716Z,25.89
2018-09-26T12:07:39.207Z,25.82
2018-09-26T12:08:41.126Z,26.31
2018-09-26T12:09:08.877Z,27.77
2018-09-26T12:10:41.096Z,28.43
2018-09-26T12:11:14.842Z,28.14
2018-09-26T12:12:22.116Z,28.46
2018-09-26T12:14:47.652Z,29.25
2018-09-26T12:15:47.271Z,29.74
2018-09-26T12:16:49.052Z,30.88
2018-09-26T12:17:54.673Z,30.15
2018-09-26T12:19:16.048Z,30.81
2018-09-26T12:19:47.852Z,30.00
2018-09-26T12:20:47.080Z,30.44
2018-09-26T12:21:48.063Z,29.21
2018-09-26T12:22:55.861Z,28.89
2018-09-26T12:23:47.559Z,28.83
2018-09-26T12:24:49.560Z,29.25
2018-09-26T12:25:55.486Z,30.18
2018-09-26T12:26:56.511Z,31.12
2018-09-26T12:28:11.188Z,30.13
2018-09-26T12:29:03.493Z,29.48
2018-09-26T12:29:52.133Z,28.52
2018-09-26T12:30:49.867Z,28.91
2018-09-26T12:31:48.525Z,29.94
2018-09-26T12:32:47.997Z,31.05
2018-09-26T12:33:48.011Z,31.79
2018-09-26T12:34:56.754Z,30.30
2018-09-26T12:35:47.886Z,30.56
2018-09-26T12:36:48.061Z,30.67
2018-09-26T12:37:56.356Z,29.70
2018-09-26T12:39:06.117Z,30.11
2018-09-26T12:39:47.341Z,30.19
2018-09-26T12:40:54.538Z,30.75
2018-09-26T12:41:47.846Z,30.66
2018-09-26T12:42:47.791Z,30.53
2018-09-26T12:43:47.956Z,30.18
2018-09-26T12:45:02.582Z,30.42
2018-09-26T12:45:47.995Z,30.34
2018-09-26T12:46:47.860Z,30.30
2018-09-26T12:47:49.010Z,30.07
2018-09-26T12:48:54.227Z,30.01
2018-09-26T12:49:56.185Z,30.22
2018-09-26T12:50:49.541Z,31.00
2018-09-26T12:51:50.501Z,31.79
2018-09-26T12:52:48.003Z,31.27
2018-09-26T12:53:48.233Z,30.79
2018-09-26T12:54:48.025Z,29.66
2018-09-26T12:55:47.867Z,30.22
2018-09-26T12:56:56.622Z,31.18
2018-09-26T12:58:03.975Z,30.49
2018-09-26T12:58:50.077Z,28.43
2018-09-26T12:59:50.526Z,28.73
2018-09-26T13:00:49.464Z,29.78
2018-09-26T13:01:48.389Z,29.57
2018-09-26T13:04:29.020Z,30.03
2018-09-26T13:05:28.619Z,30.42
2018-09-26T13:06:41.615Z,30.75
2018-09-26T13:07:41.660Z,31.60
2018-09-26T13:08:21.103Z,30.42
2018-09-26T13:09:48.599Z,30.56
2018-09-26T13:10:21.165Z,29.81
2018-09-26T13:11:23.165Z,28.52
2018-09-26T13:12:36.024Z,28.21
2018-09-26T13:15:35.210Z,28.91
2018-09-26T13:15:55.636Z,29.36
2018-09-26T13:18:45.700Z,29.58
2018-09-26T13:19:32.298Z,29.73
2018-09-26T13:21:23.734Z,30.45
2018-09-26T13:24:20.782Z,26.44
2018-09-26T13:26:55.876Z,28.38
2018-09-26T13:27:34.478Z,28.18
2018-09-26T13:29:32.199Z,28.06
2018-09-26T13:33:36.558Z,28.20
2018-09-26T13:34:35.122Z,26.68
2018-09-26T13:35:34.777Z,25.94
2018-09-26T13:36:39.476Z,25.86
2018-09-26T13:37:32.992Z,26.49
2018-09-26T13:38:35.973Z,27.78
2018-09-26T13:39:34.058Z,29.10
2018-09-26T13:40:33.023Z,29.66
2018-09-26T13:41:33.842Z,29.48
2018-09-26T13:42:48.037Z,29.55
2018-09-26T13:43:33.028Z,29.33
2018-09-26T13:44:33.101Z,28.87
2018-09-26T13:45:36.048Z,27.91
2018-09-26T13:46:33.096Z,28.94
2018-09-26T13:47:33.493Z,29.21
2018-09-26T13:48:34.794Z,29.70
2018-09-26T13:49:33.041Z,29.78
2018-09-26T13:50:33.144Z,28.46
2018-09-26T13:51:33.868Z,29.21
2018-09-26T13:52:33.068Z,29.21
2018-09-26T13:53:54.008Z,29.33
2018-09-26T13:54:34.008Z,29.39
2018-09-26T13:55:34.591Z,29.30
2018-09-26T13:56:41.734Z,27.87
2018-09-26T13:57:48.546Z,28.50
2018-09-26T13:58:49.526Z,28.52
2018-09-26T13:59:39.294Z,29.12
2018-09-26T14:00:35.338Z,30.03
2018-09-26T14:01:34.809Z,28.72
2018-09-26T14:02:33.497Z,29.25
2018-09-26T14:03:36.321Z,29.17
2018-09-26T14:04:36.079Z,29.17
2018-09-26T14:05:35.591Z,29.20
2018-09-26T14:06:35.322Z,28.23
2018-09-26T14:07:35.789Z,28.14
2018-09-26T14:08:35.684Z,27.76
2018-09-26T14:09:33.541Z,28.42
2018-09-26T14:10:34.066Z,28.92
2018-09-26T14:11:36.055Z,29.08
2018-09-26T14:12:54.875Z,29.17
2018-09-26T14:13:34.080Z,28.45
2018-09-26T14:14:36.393Z,27.98
2018-09-26T14:18:07.645Z,28.95
2018-09-26T14:19:10.379Z,29.18
2018-09-26T14:20:10.743Z,29.20
2018-09-26T14:21:09.876Z,29.12
2018-09-26T14:22:07.433Z,28.25
2018-09-26T14:23:09.513Z,27.06
2018-09-26T14:24:12.440Z,27.42
2018-09-26T14:25:18.669Z,27.24
2018-09-26T14:27:22.432Z,27.84
2018-09-26T14:28:07.355Z,28.43
2018-09-26T14:29:22.615Z,27.83
2018-09-26T14:30:07.475Z,26.98
2018-09-26T14:31:14.488Z,27.30
2018-09-26T14:32:15.494Z,26.88
2018-09-26T14:33:08.541Z,27.43
2018-09-26T14:34:09.990Z,27.21
2018-09-26T14:35:08.472Z,25.78
2018-09-26T14:37:54.486Z,26.76
2018-09-26T14:38:53.898Z,26.54
2018-09-26T14:42:26.281Z,27.35
2018-09-26T14:43:26.581Z,26.98
2018-09-26T14:46:58.362Z,26.71
2018-09-26T14:47:55.181Z,26.57
2018-09-26T14:48:55.773Z,26.08
2018-09-26T14:51:29.193Z,24.87
2018-09-26T14:53:47.174Z,23.74
2018-09-26T14:54:48.748Z,23.35
2018-09-26T14:55:45.892Z,23.37
2018-09-26T14:58:18.482Z,22.46
2018-09-26T15:00:52.257Z,22.21
2018-09-26T15:01:34.055Z,21.96
2018-09-26T15:02:34.077Z,21.90
2018-09-26T15:03:34.054Z,22.33
2018-09-26T15:04:34.202Z,22.11
2018-09-26T15:05:34.005Z,22.06
2018-09-26T15:06:35.997Z,21.68
2018-09-26T15:07:34.045Z,21.28
2018-09-26T15:08:35.252Z,21.27
2018-09-26T15:09:34.528Z,21.31
2018-09-26T15:10:33.625Z,21.36
2018-09-26T15:11:40.009Z,21.45
2018-09-26T15:12:34.736Z,21.34
2018-09-26T15:13:34.628Z,21.38
2018-09-26T15:14:33.618Z,21.34
2018-09-26T15:15:36.364Z,21.26
2018-09-26T15:16:34.009Z,21.15
2018-09-26T15:18:40.012Z,21.22
2018-09-26T15:19:34.013Z,21.38
2018-09-26T15:20:34.447Z,21.03
2018-09-26T15:21:34.987Z,21.09
2018-09-26T15:22:34.103Z,21.05
2018-09-26T15:23:33.986Z,21.18
2018-09-26T15:24:54.554Z,21.05
2018-09-26T15:25:54.790Z,20.68
2018-09-26T15:26:38.063Z,20.72